Airport View

Enter AWOS ICAO identifier for current METAR.

ex. KFNL

KRUQ 290305Z AUTO 17007KT 10SM OVC015 21/19 A2992 RMK AO2 T02060189

29 Sep 2020 03:08

Frequency: 118.175

Phone: 704-637-6197

Other Area AWOS: KEXX - KJQF - KSVH - KVUJ

TAF KINT 282339Z 2900/2924 18008KT P6SM FEW025 SCT040 BKN250 TEMPO 2900/2903 BKN015 FM290300 18006KT P6SM BKN012 FM290500 18006KT 3SM BR BKN003 FM291600 21011KT P6SM VCSH OVC007 FM292100 28012G20KT 2SM TSRA BKN012 OVC025CB